createdAt,value
2022-08-07T00:02:40.629Z,100.10
2022-08-07T00:05:28.916Z,103.32
2022-08-07T00:08:16.515Z,107.15
2022-08-07T00:11:06.817Z,107.75
2022-08-07T00:13:53.788Z,107.55
2022-08-07T00:16:41.854Z,103.90
2022-08-07T00:20:00.012Z,107.93
2022-08-07T00:22:40.195Z,104.18
2022-08-07T00:25:37.185Z,102.35
2022-08-07T00:28:33.821Z,108.28
2022-08-07T00:31:21.259Z,105.13
2022-08-07T00:34:08.544Z,109.57
2022-08-07T00:36:56.250Z,107.95
2022-08-07T00:39:45.046Z,105.57
2022-08-07T00:42:34.103Z,108.95
2022-08-07T00:45:23.599Z,108.78
2022-08-07T00:48:12.225Z,109.43
2022-08-07T00:51:01.015Z,105.05
2022-08-07T00:53:50.630Z,104.88
2022-08-07T00:56:42.158Z,104.38
2022-08-07T00:59:35.303Z,102.75
2022-08-07T01:02:28.486Z,99.13
2022-08-07T01:05:19.189Z,102.80
2022-08-07T01:08:06.613Z,96.68
2022-08-07T01:10:56.701Z,99.00
2022-08-07T01:13:55.909Z,99.82
2022-08-07T01:16:47.133Z,99.18
2022-08-07T01:19:38.287Z,101.03
2022-08-07T01:22:29.119Z,97.55
2022-08-07T01:25:40.410Z,99.72
2022-08-07T01:28:24.319Z,100.75
2022-08-07T01:31:15.497Z,98.65
2022-08-07T01:34:05.974Z,100.85
2022-08-07T01:36:58.026Z,103.90
2022-08-07T01:39:46.709Z,100.28
2022-08-07T01:42:39.523Z,100.47
2022-08-07T01:45:43.557Z,102.22
2022-08-07T01:48:34.090Z,102.05
2022-08-07T01:51:58.561Z,99.32
2022-08-07T01:54:36.815Z,98.93
2022-08-07T01:57:28.772Z,99.32
2022-08-07T02:00:17.819Z,102.13
2022-08-07T02:03:12.186Z,99.47
2022-08-07T02:06:31.424Z,101.65
2022-08-07T02:09:51.713Z,98.15
2022-08-07T02:12:33.400Z,97.68
2022-08-07T02:15:26.334Z,97.72
2022-08-07T02:18:15.605Z,99.43
2022-08-07T02:21:07.411Z,100.43
2022-08-07T02:24:03.057Z,97.95
2022-08-07T02:26:51.142Z,98.22
2022-08-07T02:29:48.505Z,99.80
2022-08-07T02:32:42.630Z,99.53
2022-08-07T02:36:30.526Z,101.75
2022-08-07T02:38:58.721Z,107.30
2022-08-07T02:41:50.913Z,103.38
2022-08-07T02:44:48.154Z,104.30
2022-08-07T02:47:45.407Z,104.78
2022-08-07T02:50:42.620Z,101.85
2022-08-07T02:53:38.571Z,105.07
2022-08-07T02:56:29.327Z,103.68
2022-08-07T02:59:23.871Z,106.53
2022-08-07T03:02:15.151Z,108.47
2022-08-07T03:05:04.906Z,106.88
2022-08-07T03:08:05.053Z,104.53
2022-08-07T03:10:56.381Z,105.82
2022-08-07T03:13:49.462Z,107.68
2022-08-07T03:16:38.348Z,106.22
2022-08-07T03:19:29.122Z,103.93
2022-08-07T03:22:30.280Z,104.13
2022-08-07T03:25:21.078Z,106.45
2022-08-07T03:28:37.387Z,107.85
2022-08-07T03:31:43.565Z,102.95
2022-08-07T03:34:39.135Z,105.90
2022-08-07T03:37:32.492Z,104.00
2022-08-07T03:40:22.200Z,101.90
2022-08-07T03:43:13.895Z,103.97
2022-08-07T03:46:03.949Z,102.82
2022-08-07T03:49:03.005Z,106.15
2022-08-07T03:51:55.331Z,103.78
2022-08-07T03:54:54.603Z,105.30
2022-08-07T03:58:34.045Z,101.65
2022-08-07T04:00:52.657Z,104.95
2022-08-07T04:03:53.498Z,100.65
2022-08-07T04:06:43.655Z,96.50
2022-08-07T04:09:44.831Z,97.32
2022-08-07T04:12:35.204Z,97.75
2022-08-07T04:15:23.850Z,97.13
2022-08-07T04:18:57.491Z,100.20
2022-08-07T04:21:22.232Z,98.65
2022-08-07T04:24:30.879Z,99.90
2022-08-07T04:27:25.840Z,98.22
2022-08-07T04:30:21.432Z,96.78
2022-08-07T04:33:21.518Z,97.60
2022-08-07T04:36:10.373Z,96.72
2022-08-07T04:38:58.131Z,101.38
2022-08-07T04:41:50.443Z,99.28
2022-08-07T04:44:54.604Z,100.55
2022-08-07T04:48:06.047Z,96.78
2022-08-07T04:51:09.340Z,97.68
2022-08-07T04:54:33.580Z,99.65
2022-08-07T04:58:13.068Z,98.30
2022-08-07T05:04:06.975Z,95.65
2022-08-07T05:07:09.581Z,97.40
2022-08-07T05:10:29.229Z,99.60
2022-08-07T05:14:54.298Z,104.65
2022-08-07T05:16:43.800Z,101.90
2022-08-07T05:19:44.735Z,100.75
2022-08-07T05:22:36.485Z,100.78
2022-08-07T05:25:26.367Z,104.10
2022-08-07T05:28:26.792Z,106.95
2022-08-07T05:31:18.736Z,117.05
2022-08-07T05:34:11.184Z,124.07
2022-08-07T05:36:58.947Z,129.75
2022-08-07T05:40:16.687Z,131.48
2022-08-07T05:42:55.763Z,132.23
2022-08-07T05:45:46.572Z,135.68
2022-08-07T05:48:35.705Z,131.32
2022-08-07T05:51:46.583Z,126.10
2022-08-07T05:54:44.401Z,121.88
2022-08-07T05:57:42.911Z,123.57
2022-08-07T06:00:34.570Z,126.55
2022-08-07T06:03:23.785Z,126.80
2022-08-07T06:06:12.182Z,126.38
2022-08-07T06:09:05.372Z,131.88
2022-08-07T06:11:52.951Z,125.53
2022-08-07T06:14:40.006Z,128.27
2022-08-07T06:17:30.418Z,137.60
2022-08-07T06:20:25.575Z,141.65
2022-08-07T06:24:37.429Z,144.27
2022-08-07T06:26:33.667Z,146.63
2022-08-07T06:29:26.937Z,153.45
2022-08-07T06:35:10.522Z,153.88
2022-08-07T06:38:08.179Z,166.15
2022-08-07T06:40:59.307Z,168.45
2022-08-07T06:44:01.348Z,168.00
2022-08-07T06:47:09.897Z,172.05
2022-08-07T06:49:59.125Z,179.60
2022-08-07T06:52:53.137Z,175.05
2022-08-07T06:56:00.537Z,184.75
2022-08-07T07:00:13.437Z,177.55
2022-08-07T07:01:58.796Z,175.82
2022-08-07T07:04:54.988Z,164.70
2022-08-07T07:07:59.668Z,166.85
2022-08-07T07:10:56.548Z,164.52
2022-08-07T07:13:57.439Z,168.35
2022-08-07T07:16:53.497Z,171.55
2022-08-07T07:19:57.391Z,168.50
2022-08-07T07:24:05.352Z,172.70
2022-08-07T07:26:32.717Z,174.85
2022-08-07T07:29:39.319Z,182.82
2022-08-07T07:32:24.079Z,182.83
2022-08-07T07:35:12.165Z,187.85
2022-08-07T07:38:04.655Z,180.43
2022-08-07T07:41:02.409Z,176.30
2022-08-07T07:44:17.795Z,174.85
2022-08-07T07:47:13.968Z,175.70
2022-08-07T07:50:33.020Z,181.13
2022-08-07T07:53:25.804Z,174.95
2022-08-07T07:56:14.149Z,175.43
2022-08-07T07:59:05.967Z,181.50
2022-08-07T08:02:03.812Z,174.30
2022-08-07T08:04:57.587Z,172.00
2022-08-07T08:07:59.858Z,158.45
2022-08-07T08:10:48.987Z,162.77
2022-08-07T08:13:53.781Z,155.20
2022-08-07T08:16:50.478Z,158.30
2022-08-07T08:20:20.037Z,151.40
2022-08-07T08:23:09.432Z,154.20
2022-08-07T08:26:19.206Z,155.30
2022-08-07T08:29:09.261Z,180.18
2022-08-07T08:32:04.660Z,185.95
2022-08-07T08:35:05.885Z,179.90
2022-08-07T08:38:04.883Z,183.10
2022-08-07T08:41:10.668Z,186.27
2022-08-07T08:44:44.591Z,183.20
2022-08-07T08:47:47.412Z,186.43
2022-08-07T08:54:02.064Z,185.60
2022-08-07T08:56:52.726Z,195.70
2022-08-07T09:00:01.674Z,180.43
2022-08-07T09:03:16.032Z,188.40
2022-08-07T09:06:16.804Z,190.45
2022-08-07T09:09:33.031Z,187.65
2022-08-07T09:12:56.079Z,187.00
2022-08-07T09:16:24.390Z,187.68
2022-08-07T09:19:53.136Z,184.88
2022-08-07T09:24:54.740Z,181.75
2022-08-07T09:26:22.680Z,181.15
2022-08-07T09:30:01.766Z,189.50
2022-08-07T09:32:45.390Z,193.30
2022-08-07T09:36:01.300Z,205.23
2022-08-07T09:39:11.340Z,202.75
2022-08-07T09:42:23.149Z,210.68
2022-08-07T09:47:27.389Z,206.75
2022-08-07T09:50:02.604Z,201.52
2022-08-07T09:52:35.362Z,197.02
2022-08-07T09:56:04.586Z,207.40
2022-08-07T09:59:22.045Z,210.10
2022-08-07T10:02:34.528Z,196.48
2022-08-07T10:06:01.236Z,201.30
2022-08-07T10:09:34.320Z,215.27
2022-08-07T10:12:53.007Z,218.50
2022-08-07T10:15:44.644Z,221.90
2022-08-07T10:19:11.335Z,227.32
2022-08-07T10:22:17.384Z,230.38
2022-08-07T10:25:42.933Z,242.75
2022-08-07T10:28:49.353Z,235.10
2022-08-07T10:32:52.714Z,226.05
2022-08-07T10:35:56.744Z,216.13
2022-08-07T10:38:51.841Z,213.93
2022-08-07T10:45:01.306Z,217.00
2022-08-07T10:48:03.865Z,217.20
2022-08-07T10:50:56.149Z,215.65
2022-08-07T10:54:00.027Z,221.82
2022-08-07T10:57:46.234Z,227.27
2022-08-07T11:01:35.478Z,228.05
2022-08-07T11:04:59.516Z,222.98
2022-08-07T11:08:23.549Z,221.73
2022-08-07T11:11:45.880Z,213.75
2022-08-07T11:15:00.273Z,214.48
2022-08-07T11:17:57.162Z,214.00
2022-08-07T11:21:32.244Z,218.55
2022-08-07T11:24:24.161Z,228.52
2022-08-07T11:27:33.603Z,237.48
2022-08-07T11:31:08.788Z,232.68
2022-08-07T11:34:10.243Z,237.18
2022-08-07T11:37:12.095Z,231.73
2022-08-07T11:40:18.956Z,228.18
2022-08-07T11:43:15.582Z,228.40
2022-08-07T11:46:13.012Z,227.70
2022-08-07T11:50:11.553Z,232.38
2022-08-07T11:53:13.062Z,223.75
2022-08-07T11:56:35.230Z,217.45
2022-08-07T12:00:11.708Z,221.82
2022-08-07T12:02:52.617Z,234.65
2022-08-07T12:05:48.895Z,236.70
2022-08-07T12:09:23.385Z,228.30
2022-08-07T12:12:13.571Z,223.35
2022-08-07T12:15:17.141Z,223.70
2022-08-07T12:18:31.433Z,220.73
2022-08-07T12:22:35.722Z,218.48
2022-08-07T12:26:03.183Z,212.90
2022-08-07T12:28:49.725Z,225.55
2022-08-07T12:32:04.762Z,228.02
2022-08-07T12:34:56.253Z,224.52
2022-08-07T12:38:09.227Z,219.60
2022-08-07T12:40:57.752Z,218.02
2022-08-07T12:44:02.923Z,219.05
2022-08-07T12:47:50.223Z,212.23
2022-08-07T12:50:48.707Z,228.27
2022-08-07T12:54:38.364Z,229.02
2022-08-07T12:57:20.084Z,223.55
2022-08-07T13:00:21.050Z,220.98
2022-08-07T13:03:59.211Z,220.98
2022-08-07T13:07:02.088Z,220.85
2022-08-07T13:10:39.820Z,216.45
2022-08-07T13:13:47.946Z,229.50
2022-08-07T13:16:50.907Z,233.43
2022-08-07T13:19:59.800Z,233.43
2022-08-07T13:23:09.977Z,226.98
2022-08-07T13:26:18.269Z,220.25
2022-08-07T13:29:15.590Z,215.43
2022-08-07T13:32:31.652Z,210.75
2022-08-07T13:35:59.475Z,216.70
2022-08-07T13:39:13.136Z,233.52
2022-08-07T13:42:21.567Z,237.05
2022-08-07T13:46:06.628Z,237.20
2022-08-07T13:48:33.687Z,239.85
2022-08-07T13:51:28.020Z,233.48
2022-08-07T13:54:36.732Z,223.43
2022-08-07T13:57:37.659Z,221.50
2022-08-07T14:00:35.145Z,220.35
2022-08-07T14:04:05.280Z,221.18
2022-08-07T14:06:43.498Z,229.13
2022-08-07T14:10:01.297Z,238.90
2022-08-07T14:12:54.749Z,233.13
2022-08-07T14:15:44.590Z,226.57
2022-08-07T14:18:46.047Z,227.52
2022-08-07T14:22:03.033Z,224.00
2022-08-07T14:28:12.505Z,212.80
2022-08-07T14:30:57.065Z,212.07
2022-08-07T14:33:46.087Z,209.70
2022-08-07T14:36:34.561Z,207.95
2022-08-07T14:40:17.391Z,204.75
2022-08-07T14:42:32.676Z,208.85
2022-08-07T14:45:22.670Z,215.57
2022-08-07T14:48:19.683Z,217.02
2022-08-07T14:51:16.097Z,213.20
2022-08-07T14:54:30.638Z,216.57
2022-08-07T14:57:54.857Z,212.10
2022-08-07T15:00:29.988Z,211.70
2022-08-07T15:03:25.650Z,207.27
2022-08-07T15:09:59.630Z,200.00
2022-08-07T15:12:42.102Z,200.68
2022-08-07T15:15:52.790Z,202.52
2022-08-07T15:18:48.272Z,222.55
2022-08-07T15:25:15.314Z,231.30
2022-08-07T15:28:32.453Z,228.10
2022-08-07T15:31:57.998Z,225.25
2022-08-07T15:34:26.170Z,223.30
2022-08-07T15:37:16.728Z,215.88
2022-08-07T15:40:33.881Z,208.23
2022-08-07T15:43:33.146Z,209.05
2022-08-07T15:46:47.416Z,204.00
2022-08-07T15:50:05.768Z,203.25
2022-08-07T15:53:04.932Z,201.52
2022-08-07T15:56:02.524Z,205.05
2022-08-07T15:58:57.287Z,202.18
2022-08-07T16:02:02.058Z,202.20
2022-08-07T16:04:56.451Z,202.63
2022-08-07T16:08:32.925Z,202.73
2022-08-07T16:11:01.221Z,189.63
2022-08-07T16:13:58.754Z,194.45
2022-08-07T16:17:15.235Z,194.50
2022-08-07T16:20:33.140Z,192.93
2022-08-07T16:23:53.905Z,188.35
2022-08-07T16:27:03.365Z,190.05
2022-08-07T16:30:30.616Z,185.55
2022-08-07T16:34:01.834Z,188.75
2022-08-07T16:37:02.419Z,185.23
2022-08-07T16:40:32.105Z,187.02
2022-08-07T16:44:05.759Z,187.02
2022-08-07T16:47:16.036Z,185.38
2022-08-07T16:50:39.322Z,182.43
2022-08-07T16:54:06.154Z,177.48
2022-08-07T16:58:00.957Z,183.27
2022-08-07T17:01:07.972Z,179.25
2022-08-07T17:04:29.588Z,176.07
2022-08-07T17:07:55.729Z,176.68
2022-08-07T17:10:54.271Z,175.23
2022-08-07T17:14:19.145Z,173.88
2022-08-07T17:17:21.653Z,173.68
2022-08-07T17:20:41.705Z,168.70
2022-08-07T17:23:41.150Z,168.05
2022-08-07T17:26:49.841Z,168.40
2022-08-07T17:30:14.355Z,167.63
2022-08-07T17:34:09.065Z,165.32
2022-08-07T17:36:30.808Z,164.98
2022-08-07T17:39:58.188Z,167.45
2022-08-07T17:42:59.709Z,162.45
2022-08-07T17:45:58.843Z,163.07
2022-08-07T17:49:22.906Z,161.73
2022-08-07T17:52:30.761Z,164.07
2022-08-07T17:56:00.382Z,162.68
2022-08-07T17:58:50.578Z,164.05
2022-08-07T18:01:56.786Z,156.10
2022-08-07T18:05:20.882Z,158.80
2022-08-07T18:08:16.431Z,154.48
2022-08-07T18:12:19.374Z,157.18
2022-08-07T18:15:08.942Z,156.82
2022-08-07T18:18:44.900Z,154.48
2022-08-07T18:21:53.547Z,153.10
2022-08-07T18:25:01.653Z,149.82
2022-08-07T18:28:34.229Z,148.35
2022-08-07T18:31:40.882Z,147.38
2022-08-07T18:35:01.068Z,148.32
2022-08-07T18:38:56.987Z,146.10
2022-08-07T18:41:57.717Z,146.88
2022-08-07T18:45:44.123Z,146.38
2022-08-07T18:50:30.812Z,144.32
2022-08-07T18:52:38.305Z,144.50
2022-08-07T18:55:55.494Z,142.27
2022-08-07T18:59:05.777Z,142.20
2022-08-07T19:02:33.083Z,140.27
2022-08-07T19:05:16.017Z,143.38
2022-08-07T19:08:14.164Z,142.57
2022-08-07T19:11:34.865Z,141.60
2022-08-07T19:14:17.078Z,137.65
2022-08-07T19:18:01.067Z,139.05
2022-08-07T19:20:37.322Z,136.77
2022-08-07T19:23:58.811Z,136.00
2022-08-07T19:27:01.699Z,136.25
2022-08-07T19:31:03.181Z,133.50
2022-08-07T19:33:13.177Z,135.82
2022-08-07T19:36:04.110Z,135.25
2022-08-07T19:38:54.504Z,133.38
2022-08-07T19:42:07.995Z,133.38
2022-08-07T19:44:55.552Z,133.45
2022-08-07T19:47:48.187Z,129.52
2022-08-07T19:50:43.755Z,129.27
2022-08-07T19:54:30.947Z,131.68
2022-08-07T19:58:00.331Z,127.88
2022-08-07T20:00:08.869Z,128.35
2022-08-07T20:03:03.773Z,124.30
2022-08-07T20:06:03.090Z,126.63
2022-08-07T20:08:52.644Z,127.82
2022-08-07T20:12:22.487Z,124.78
2022-08-07T20:14:58.503Z,124.57
2022-08-07T20:18:01.418Z,125.82
2022-08-07T20:23:48.427Z,121.95
2022-08-07T20:26:50.153Z,122.50
2022-08-07T20:29:49.550Z,121.85
2022-08-07T20:32:46.730Z,121.18
2022-08-07T20:35:54.603Z,121.38
2022-08-07T20:39:00.275Z,122.65
2022-08-07T20:41:54.275Z,122.18
2022-08-07T20:44:49.513Z,123.38
2022-08-07T20:47:56.895Z,121.13
2022-08-07T20:50:45.544Z,120.38
2022-08-07T20:54:02.034Z,121.13
2022-08-07T20:56:45.905Z,116.63
2022-08-07T21:00:06.282Z,117.55
2022-08-07T21:02:59.862Z,115.95
2022-08-07T21:05:57.114Z,115.45
2022-08-07T21:09:14.227Z,113.68
2022-08-07T21:12:05.641Z,111.68
2022-08-07T21:15:07.186Z,113.97
2022-08-07T21:18:09.015Z,114.53
2022-08-07T21:21:05.671Z,112.13
2022-08-07T21:24:05.955Z,110.80
2022-08-07T21:27:14.658Z,111.90
2022-08-07T21:30:08.687Z,111.43
2022-08-07T21:33:15.032Z,113.95
2022-08-07T21:36:32.254Z,114.20
2022-08-07T21:39:47.221Z,114.18
2022-08-07T21:43:04.597Z,117.53
2022-08-07T21:46:09.794Z,113.60
2022-08-07T21:49:20.949Z,117.80
2022-08-07T21:52:16.860Z,118.13
2022-08-07T21:55:48.250Z,116.93
2022-08-07T21:59:01.557Z,114.57
2022-08-07T22:02:11.184Z,114.80
2022-08-07T22:05:03.479Z,112.32
2022-08-07T22:07:58.483Z,115.07
2022-08-07T22:10:51.014Z,111.43
2022-08-07T22:13:52.593Z,106.78
2022-08-07T22:16:56.348Z,110.93
2022-08-07T22:20:00.567Z,112.10
2022-08-07T22:23:13.024Z,108.65
2022-08-07T22:26:14.340Z,107.97
2022-08-07T22:29:13.731Z,107.25
2022-08-07T22:32:24.488Z,107.55
2022-08-07T22:35:11.828Z,106.80
2022-08-07T22:38:26.082Z,106.30
2022-08-07T22:42:02.448Z,104.30
2022-08-07T22:44:35.708Z,105.07
2022-08-07T22:47:44.239Z,104.63
2022-08-07T22:50:42.228Z,104.45
2022-08-07T22:54:07.000Z,102.95
2022-08-07T22:57:26.118Z,103.95
2022-08-07T23:00:28.745Z,102.17
2022-08-07T23:03:57.250Z,102.18
2022-08-07T23:07:30.172Z,97.53
2022-08-07T23:10:42.347Z,100.93
2022-08-07T23:14:10.812Z,98.55
2022-08-07T23:17:23.346Z,102.32
2022-08-07T23:20:40.548Z,100.75
2022-08-07T23:24:11.125Z,97.88
2022-08-07T23:27:16.751Z,97.50
2022-08-07T23:30:37.608Z,97.45
2022-08-07T23:34:23.629Z,94.75
2022-08-07T23:37:29.672Z,97.85
2022-08-07T23:40:39.830Z,97.72
2022-08-07T23:44:05.275Z,99.57
2022-08-07T23:47:30.878Z,95.40
2022-08-07T23:50:49.522Z,96.75
2022-08-07T23:54:06.233Z,96.55
2022-08-07T23:57:13.405Z,96.80
